Time;durP1;ratioP1;P1;durP2;ratioP2;P2;SDS_P1;SDS_P2;PMS_P1;PMS_P2;Temp;Humidity;BMP_temperature;BMP_pressure;BME280_temperature;BME280_humidity;BME280_pressure;Samples;Min_cycle;Max_cycle;Signal;HPM_P1;HPM_P2
2022/09/27 00:01:18;;;;;;;1.40;0.80;;;;;;;;;;4991717;28;20535;-69
2022/09/27 00:03:45;;;;;;;1.27;0.77;;;;;;;;;;4991179;28;20583;-68
2022/09/27 00:06:13;;;;;;;0.90;0.70;;;;;;;;;;4990256;28;20539;-69
2022/09/27 00:08:41;;;;;;;0.87;0.73;;;;;;;;;;4991633;28;20539;-69
2022/09/27 00:11:09;;;;;;;2.30;2.10;;;;;;;;;;4990996;28;20515;-68
2022/09/27 00:13:36;;;;;;;1.33;0.90;;;;;;;;;;4991500;28;20834;-69
2022/09/27 00:16:05;;;;;;;1.47;0.90;;;;;;;;;;4990919;28;20455;-68
2022/09/27 00:18:33;;;;;;;1.07;0.60;;;;;;;;;;4991480;28;20546;-68
2022/09/27 00:21:05;;;;;;;1.00;0.77;;;;;;;;;;4991216;28;20538;-68
2022/09/27 00:23:33;;;;;;;3.27;1.40;;;;;;;;;;4979898;28;20930;-69
2022/09/27 00:26:01;;;;;;;1.50;0.70;;;;;;;;;;4990843;28;20565;-69
2022/09/27 00:28:28;;;;;;;0.90;0.80;;;;;;;;;;4991716;28;20483;-69
2022/09/27 00:30:55;;;;;;;0.70;0.57;;;;;;;;;;4991344;28;20537;-69
2022/09/27 00:33:24;;;;;;;0.80;0.63;;;;;;;;;;4991320;28;20551;-69
2022/09/27 00:35:51;;;;;;;0.80;0.63;;;;;;;;;;4990546;28;20532;-68
2022/09/27 00:38:18;;;;;;;0.90;0.70;;;;;;;;;;4991980;28;20485;-69
2022/09/27 00:40:46;;;;;;;0.80;0.50;;;;;;;;;;4991359;28;20982;-68
2022/09/27 00:43:18;;;;;;;1.03;0.67;;;;;;;;;;4991255;28;20505;-69
2022/09/27 00:45:48;;;;;;;0.83;0.63;;;;;;;;;;4991495;28;20566;-69
2022/09/27 00:48:17;;;;;;;1.40;0.70;;;;;;;;;;4991857;28;20932;-69
2022/09/27 00:50:48;;;;;;;2.50;0.60;;;;;;;;;;4991353;28;20455;-68
2022/09/27 00:53:17;;;;;;;1.83;0.70;;;;;;;;;;4991819;28;20544;-68
2022/09/27 00:55:47;;;;;;;0.97;0.60;;;;;;;;;;4991359;28;20486;-69
2022/09/27 00:58:15;;;;;;;0.87;0.53;;;;;;;;;;4992164;28;20867;-68
2022/09/27 01:00:45;;;;;;;2.70;0.70;;;;;;;;;;4982393;28;20527;-68
2022/09/27 01:03:14;;;;;;;1.30;0.80;;;;;;;;;;4994531;28;20464;-68
2022/09/27 01:05:42;;;;;;;1.00;0.70;;;;;;;;;;4994826;28;20585;-69
2022/09/27 01:08:10;;;;;;;1.20;0.87;;;;;;;;;;4994661;28;20827;-69
2022/09/27 01:10:41;;;;;;;1.43;0.70;;;;;;;;;;4994481;28;20569;-69
2022/09/27 01:13:13;;;;;;;1.00;0.70;;;;;;;;;;4994635;28;20529;-69
2022/09/27 01:15:43;;;;;;;3.60;0.70;;;;;;;;;;4994838;28;20542;-69
2022/09/27 01:18:17;;;;;;;0.80;0.50;;;;;;;;;;4993900;28;20487;-68
2022/09/27 01:20:56;;;;;;;1.00;0.60;;;;;;;;;;4995373;28;20446;-68
2022/09/27 01:23:53;;;;;;;0.97;0.60;;;;;;;;;;4995098;28;20483;-69
2022/09/27 01:26:28;;;;;;;0.97;0.60;;;;;;;;;;4915049;29;20569;-68
2022/09/27 01:28:59;;;;;;;0.83;0.50;;;;;;;;;;4980287;28;20541;-69
2022/09/27 01:31:32;;;;;;;0.60;0.40;;;;;;;;;;4994533;28;20534;-69
2022/09/27 01:34:02;;;;;;;0.93;0.67;;;;;;;;;;4993969;28;20448;-69
2022/09/27 01:36:35;;;;;;;0.70;0.50;;;;;;;;;;4994371;28;20544;-69
2022/09/27 01:39:09;;;;;;;0.90;0.70;;;;;;;;;;4993815;28;20537;-69
2022/09/27 01:41:39;;;;;;;3.63;0.63;;;;;;;;;;4994497;28;20534;-69
2022/09/27 01:44:09;;;;;;;0.70;0.40;;;;;;;;;;4993742;28;20508;-69
2022/09/27 01:46:40;;;;;;;1.27;0.60;;;;;;;;;;4994284;28;20550;-69
2022/09/27 01:49:11;;;;;;;1.60;0.70;;;;;;;;;;4993580;28;20531;-69
2022/09/27 01:51:40;;;;;;;1.73;0.60;;;;;;;;;;4994412;28;20479;-69
2022/09/27 01:54:08;;;;;;;0.93;0.70;;;;;;;;;;4993522;28;20542;-69
2022/09/27 01:56:38;;;;;;;0.80;0.63;;;;;;;;;;4993556;28;20531;-69
2022/09/27 01:59:08;;;;;;;1.40;0.70;;;;;;;;;;4993501;28;20448;-69
2022/09/27 02:01:36;;;;;;;0.73;0.50;;;;;;;;;;4994006;28;20539;-69
2022/09/27 02:04:06;;;;;;;1.70;0.73;;;;;;;;;;4993147;28;20806;-69
2022/09/27 02:06:36;;;;;;;0.93;0.60;;;;;;;;;;4993418;28;20543;-69
2022/09/27 02:09:04;;;;;;;0.70;0.40;;;;;;;;;;4992929;28;20485;-69
2022/09/27 02:11:32;;;;;;;1.30;0.80;;;;;;;;;;4993884;28;20495;-69
2022/09/27 02:14:02;;;;;;;0.70;0.40;;;;;;;;;;4993123;28;20539;-69
2022/09/27 02:16:35;;;;;;;1.43;0.50;;;;;;;;;;4993122;28;20477;-69
2022/09/27 02:19:09;;;;;;;0.80;0.53;;;;;;;;;;4992813;28;20536;-70
2022/09/27 02:21:42;;;;;;;1.57;0.47;;;;;;;;;;4993715;28;20448;-70
2022/09/27 02:24:10;;;;;;;0.80;0.60;;;;;;;;;;4993302;28;20836;-69
2022/09/27 02:26:40;;;;;;;1.03;0.80;;;;;;;;;;4992784;28;20548;-69
2022/09/27 02:29:09;;;;;;;0.80;0.50;;;;;;;;;;4993048;28;20460;-69
2022/09/27 02:31:36;;;;;;;1.77;0.67;;;;;;;;;;4981068;28;20523;-68
2022/09/27 02:34:06;;;;;;;1.00;0.50;;;;;;;;;;4992669;28;20505;-68
2022/09/27 02:36:34;;;;;;;0.73;0.43;;;;;;;;;;4992714;28;20543;-67
2022/09/27 02:39:01;;;;;;;0.93;0.57;;;;;;;;;;4992755;28;20474;-67
2022/09/27 02:41:28;;;;;;;0.60;0.40;;;;;;;;;;4993107;28;20534;-67
2022/09/27 02:43:57;;;;;;;1.10;0.57;;;;;;;;;;4992294;28;20541;-67
2022/09/27 02:46:33;;;;;;;0.90;0.53;;;;;;;;;;4992798;28;20568;-68
2022/09/27 02:49:05;;;;;;;1.77;0.50;;;;;;;;;;4992270;28;21006;-67
2022/09/27 02:51:40;;;;;;;0.70;0.47;;;;;;;;;;4993200;28;20525;-67
2022/09/27 02:54:11;;;;;;;0.67;0.40;;;;;;;;;;4992096;28;20536;-68
2022/09/27 02:56:44;;;;;;;0.60;0.40;;;;;;;;;;4992697;28;20537;-67
2022/09/27 02:59:14;;;;;;;0.90;0.50;;;;;;;;;;4980062;28;20524;-68
2022/09/27 03:01:45;;;;;;;0.60;0.40;;;;;;;;;;4993323;28;20544;-67
2022/09/27 03:04:16;;;;;;;0.70;0.60;;;;;;;;;;4992241;28;20544;-67
2022/09/27 03:06:46;;;;;;;0.70;0.40;;;;;;;;;;4992220;28;20926;-68
2022/09/27 03:09:20;;;;;;;0.80;0.43;;;;;;;;;;4991809;28;20540;-67
2022/09/27 03:11:47;;;;;;;1.47;0.80;;;;;;;;;;4991939;28;20538;-68
2022/09/27 03:14:14;;;;;;;1.70;0.50;;;;;;;;;;4991261;28;20463;-68
2022/09/27 03:16:41;;;;;;;1.40;0.67;;;;;;;;;;4992228;28;20545;-67
2022/09/27 03:19:09;;;;;;;3.17;0.60;;;;;;;;;;4992881;28;20492;-68
2022/09/27 03:21:36;;;;;;;1.00;0.50;;;;;;;;;;4993579;28;20945;-67
2022/09/27 03:24:05;;;;;;;1.73;0.80;;;;;;;;;;4994817;28;20474;-68
2022/09/27 03:26:32;;;;;;;1.50;0.67;;;;;;;;;;4994618;28;20578;-68
2022/09/27 03:28:59;;;;;;;0.70;0.50;;;;;;;;;;4994549;28;20533;-67
2022/09/27 03:31:26;;;;;;;0.90;0.60;;;;;;;;;;4995790;28;20506;-67
2022/09/27 03:33:53;;;;;;;0.70;0.50;;;;;;;;;;4995711;28;20514;-67
2022/09/27 03:36:20;;;;;;;1.83;0.63;;;;;;;;;;4996220;28;20493;-67
2022/09/27 03:38:48;;;;;;;1.13;1.00;;;;;;;;;;4996077;28;20481;-67
2022/09/27 03:41:16;;;;;;;2.10;2.00;;;;;;;;;;4996515;28;20465;-67
2022/09/27 03:43:44;;;;;;;1.00;0.70;;;;;;;;;;4996989;28;20486;-67
2022/09/27 03:46:11;;;;;;;1.70;1.20;;;;;;;;;;4982893;28;20509;-67
2022/09/27 03:48:40;;;;;;;0.80;0.50;;;;;;;;;;4997117;28;20453;-67
2022/09/27 03:51:08;;;;;;;0.90;0.50;;;;;;;;;;4997625;28;20455;-69
2022/09/27 03:53:35;;;;;;;1.73;0.90;;;;;;;;;;4997316;28;20449;-68
2022/09/27 03:56:03;;;;;;;1.43;0.60;;;;;;;;;;4997037;28;20984;-69
2022/09/27 03:58:31;;;;;;;0.70;0.50;;;;;;;;;;4997248;28;21034;-66
2022/09/27 04:00:58;;;;;;;1.30;0.67;;;;;;;;;;4995361;28;20485;-67
2022/09/27 04:03:26;;;;;;;1.07;0.60;;;;;;;;;;4996938;28;20489;-67
2022/09/27 04:05:53;;;;;;;0.97;0.60;;;;;;;;;;4996411;28;20489;-67
2022/09/27 04:08:21;;;;;;;2.83;0.83;;;;;;;;;;4997558;28;20490;-68
2022/09/27 04:10:48;;;;;;;1.57;0.80;;;;;;;;;;4957509;28;1153442;-68
2022/09/27 04:13:15;;;;;;;3.13;1.00;;;;;;;;;;4992398;28;20290;-68
2022/09/27 04:15:44;;;;;;;1.70;1.03;;;;;;;;;;4991831;28;20981;-68
2022/09/27 04:18:11;;;;;;;2.57;1.00;;;;;;;;;;4991021;28;20546;-68
2022/09/27 04:20:39;;;;;;;1.40;1.10;;;;;;;;;;4992133;28;20539;-68
2022/09/27 04:23:06;;;;;;;0.87;0.63;;;;;;;;;;4991965;28;20523;-68
2022/09/27 04:25:33;;;;;;;1.83;0.90;;;;;;;;;;4992265;28;20523;-68
2022/09/27 04:28:01;;;;;;;2.20;0.80;;;;;;;;;;4992051;28;20542;-68
2022/09/27 04:30:28;;;;;;;3.37;1.23;;;;;;;;;;4992689;28;20454;-68
2022/09/27 04:32:57;;;;;;;2.20;1.43;;;;;;;;;;4978120;28;20535;-67
2022/09/27 04:38:09;;;;;;;1.47;1.00;;;;;;;;;;4995217;28;20489;-68
2022/09/27 04:40:37;;;;;;;5.43;1.40;;;;;;;;;;4996020;28;20459;-68
2022/09/27 04:43:04;;;;;;;1.10;0.73;;;;;;;;;;4995565;28;20451;-68
2022/09/27 04:45:31;;;;;;;3.30;1.47;;;;;;;;;;4995257;28;20529;-68
2022/09/27 04:48:00;;;;;;;1.80;1.00;;;;;;;;;;4995613;28;20478;-68
2022/09/27 04:50:27;;;;;;;1.20;0.90;;;;;;;;;;4996094;28;20532;-68
2022/09/27 04:52:54;;;;;;;2.13;0.60;;;;;;;;;;4995778;28;20543;-69
2022/09/27 04:55:22;;;;;;;2.07;1.07;;;;;;;;;;4995120;28;20477;-68
2022/09/27 04:57:49;;;;;;;4.20;1.90;;;;;;;;;;4984913;28;20544;-68
2022/09/27 05:00:17;;;;;;;3.23;1.00;;;;;;;;;;4992496;28;20530;-69
2022/09/27 05:02:44;;;;;;;1.57;1.37;;;;;;;;;;4995454;28;20446;-69
2022/09/27 05:05:13;;;;;;;2.30;1.27;;;;;;;;;;4993907;28;20450;-69
2022/09/27 05:07:40;;;;;;;1.50;1.00;;;;;;;;;;4995379;28;20481;-69
2022/09/27 05:10:08;;;;;;;1.03;0.83;;;;;;;;;;4994164;28;20559;-68
2022/09/27 05:12:35;;;;;;;4.60;2.03;;;;;;;;;;4995262;28;20487;-68
2022/09/27 05:15:02;;;;;;;2.10;1.00;;;;;;;;;;4994049;28;20487;-68
2022/09/27 05:17:30;;;;;;;4.40;1.07;;;;;;;;;;4994528;28;20502;-69
2022/09/27 05:19:57;;;;;;;2.23;1.10;;;;;;;;;;4994380;28;20458;-68
2022/09/27 05:22:25;;;;;;;1.30;1.10;;;;;;;;;;4995081;28;20476;-68
2022/09/27 05:24:52;;;;;;;1.30;1.03;;;;;;;;;;4993778;28;20989;-68
2022/09/27 05:27:20;;;;;;;1.67;1.10;;;;;;;;;;4994738;28;20928;-68
2022/09/27 05:29:47;;;;;;;5.40;1.47;;;;;;;;;;4994803;28;20517;-69
2022/09/27 05:32:15;;;;;;;1.33;0.87;;;;;;;;;;4994624;28;20478;-69
2022/09/27 05:34:42;;;;;;;2.30;1.30;;;;;;;;;;4993890;28;20498;-68
2022/09/27 05:37:09;;;;;;;1.43;0.93;;;;;;;;;;4994227;28;21022;-68
2022/09/27 05:39:38;;;;;;;1.73;1.13;;;;;;;;;;4994151;28;20491;-68
2022/09/27 05:42:07;;;;;;;1.40;0.90;;;;;;;;;;4993697;28;20455;-69
2022/09/27 05:44:34;;;;;;;6.93;1.30;;;;;;;;;;4993820;28;20460;-69
2022/09/27 05:47:03;;;;;;;2.00;1.20;;;;;;;;;;4993513;28;20581;-69
2022/09/27 05:49:30;;;;;;;2.13;1.23;;;;;;;;;;4981971;28;20462;-68
2022/09/27 05:51:58;;;;;;;1.27;0.97;;;;;;;;;;4993983;28;20536;-68
2022/09/27 05:54:25;;;;;;;1.63;1.07;;;;;;;;;;4993629;28;20449;-68
2022/09/27 05:56:57;;;;;;;1.63;1.10;;;;;;;;;;4993609;28;20449;-67
2022/09/27 05:59:25;;;;;;;1.53;0.80;;;;;;;;;;4993902;28;20452;-67
2022/09/27 06:01:52;;;;;;;1.37;0.70;;;;;;;;;;4993216;28;20460;-68
2022/09/27 06:04:20;;;;;;;1.20;0.80;;;;;;;;;;4993556;28;20532;-68
2022/09/27 06:06:47;;;;;;;1.70;0.90;;;;;;;;;;4994227;28;20525;-68
2022/09/27 06:09:15;;;;;;;1.47;0.80;;;;;;;;;;4993319;28;20953;-67
2022/09/27 06:11:44;;;;;;;2.60;1.17;;;;;;;;;;4993796;28;20525;-68
2022/09/27 06:14:13;;;;;;;2.83;0.90;;;;;;;;;;4992997;28;21387;-67
2022/09/27 06:16:40;;;;;;;6.00;1.40;;;;;;;;;;4993746;28;20544;-67
2022/09/27 06:19:07;;;;;;;5.73;1.27;;;;;;;;;;4992763;28;20537;-68
2022/09/27 06:21:35;;;;;;;1.03;0.70;;;;;;;;;;4993727;28;20450;-67
2022/09/27 06:24:02;;;;;;;1.67;0.97;;;;;;;;;;4992902;28;20509;-67
2022/09/27 06:26:30;;;;;;;4.00;1.03;;;;;;;;;;4993327;28;21014;-68
2022/09/27 06:28:57;;;;;;;1.10;1.00;;;;;;;;;;4993129;28;20560;-67
2022/09/27 06:31:25;;;;;;;2.33;1.00;;;;;;;;;;4993090;28;20478;-68
2022/09/27 06:33:52;;;;;;;0.90;0.70;;;;;;;;;;4992454;28;20576;-68
2022/09/27 06:36:20;;;;;;;1.90;0.90;;;;;;;;;;4992715;28;21003;-67
2022/09/27 06:38:48;;;;;;;0.83;0.70;;;;;;;;;;4993380;28;20977;-67
2022/09/27 06:41:15;;;;;;;1.57;0.80;;;;;;;;;;4992883;28;20459;-68
2022/09/27 06:43:43;;;;;;;0.90;0.70;;;;;;;;;;4993394;28;20451;-67
2022/09/27 06:46:10;;;;;;;0.83;0.60;;;;;;;;;;4991863;28;20480;-67
2022/09/27 06:48:39;;;;;;;0.80;0.53;;;;;;;;;;4992769;28;20543;-67
2022/09/27 06:51:06;;;;;;;2.43;1.30;;;;;;;;;;4992407;28;20446;-67
2022/09/27 06:53:33;;;;;;;1.10;0.70;;;;;;;;;;4993023;28;20536;-68
2022/09/27 06:56:01;;;;;;;1.10;0.80;;;;;;;;;;4991381;28;20561;-67
2022/09/27 07:01:13;;;;;;;0.80;0.60;;;;;;;;;;4992257;28;20436;-68
2022/09/27 07:03:43;;;;;;;0.93;0.60;;;;;;;;;;4992331;28;20637;-69
2022/09/27 07:06:16;;;;;;;2.10;1.07;;;;;;;;;;4991509;28;20486;-70
2022/09/27 07:08:43;;;;;;;1.77;0.60;;;;;;;;;;4992402;28;20544;-69
2022/09/27 07:11:10;;;;;;;1.00;0.80;;;;;;;;;;4992124;28;20482;-69
2022/09/27 07:13:41;;;;;;;1.17;0.67;;;;;;;;;;4992760;28;20549;-69
2022/09/27 07:16:08;;;;;;;1.03;0.70;;;;;;;;;;4991765;28;20486;-69
2022/09/27 07:18:36;;;;;;;2.80;0.57;;;;;;;;;;4992450;28;20875;-69
2022/09/27 07:21:04;;;;;;;2.80;0.63;;;;;;;;;;4991894;28;20538;-69
2022/09/27 07:23:31;;;;;;;0.80;0.50;;;;;;;;;;4980189;28;20446;-69
2022/09/27 07:26:03;;;;;;;0.70;0.50;;;;;;;;;;4991547;28;20868;-69
2022/09/27 07:28:30;;;;;;;0.67;0.47;;;;;;;;;;4992740;28;20452;-69
2022/09/27 07:30:57;;;;;;;0.70;0.50;;;;;;;;;;4991774;28;20556;-69
2022/09/27 07:33:25;;;;;;;1.37;0.70;;;;;;;;;;4992310;28;20541;-69
2022/09/27 07:35:52;;;;;;;1.17;0.60;;;;;;;;;;4991159;28;21033;-68
2022/09/27 07:38:20;;;;;;;2.30;0.80;;;;;;;;;;4992450;28;20534;-68
2022/09/27 07:40:48;;;;;;;0.70;0.40;;;;;;;;;;4991953;28;20544;-69
2022/09/27 07:43:15;;;;;;;0.70;0.50;;;;;;;;;;4991903;28;20533;-69
2022/09/27 07:45:43;;;;;;;1.10;0.40;;;;;;;;;;4991842;28;20810;-69
2022/09/27 07:48:13;;;;;;;0.70;0.53;;;;;;;;;;4991291;28;20568;-69
2022/09/27 07:50:40;;;;;;;1.10;0.63;;;;;;;;;;4992243;28;20529;-69
2022/09/27 07:53:11;;;;;;;0.80;0.50;;;;;;;;;;4991699;28;20537;-69
2022/09/27 07:55:40;;;;;;;1.40;0.60;;;;;;;;;;4991406;28;20438;-70
2022/09/27 07:58:08;;;;;;;0.70;0.40;;;;;;;;;;4991400;28;20455;-70
2022/09/27 08:00:35;;;;;;;0.70;0.50;;;;;;;;;;4991407;28;20876;-69
2022/09/27 08:03:04;;;;;;;0.93;0.50;;;;;;;;;;4990929;28;20459;-69
2022/09/27 08:05:32;;;;;;;1.00;0.50;;;;;;;;;;4991029;28;20486;-69
2022/09/27 08:07:59;;;;;;;0.87;0.53;;;;;;;;;;4990466;28;20577;-69
2022/09/27 08:10:30;;;;;;;0.70;0.50;;;;;;;;;;4991314;28;20558;-69
2022/09/27 08:12:58;;;;;;;0.90;0.70;;;;;;;;;;4990528;28;20461;-73
2022/09/27 08:15:27;;;;;;;1.10;0.73;;;;;;;;;;4991361;28;20534;-69
2022/09/27 08:17:54;;;;;;;0.73;0.50;;;;;;;;;;4990878;28;20495;-70
2022/09/27 08:20:22;;;;;;;0.97;0.50;;;;;;;;;;4991647;28;20486;-69
2022/09/27 08:22:49;;;;;;;0.77;0.60;;;;;;;;;;4991263;28;20544;-69
2022/09/27 08:25:16;;;;;;;1.10;0.90;;;;;;;;;;4991333;28;20459;-68
2022/09/27 08:27:43;;;;;;;0.70;0.40;;;;;;;;;;4991918;28;20593;-69
2022/09/27 08:30:12;;;;;;;1.47;0.60;;;;;;;;;;4991179;28;20491;-69
2022/09/27 08:32:39;;;;;;;0.83;0.53;;;;;;;;;;4991179;28;20535;-69
2022/09/27 08:35:07;;;;;;;0.80;0.50;;;;;;;;;;4990707;28;20484;-69
2022/09/27 08:37:34;;;;;;;0.93;0.60;;;;;;;;;;4991577;28;20534;-69
2022/09/27 08:40:02;;;;;;;1.03;0.80;;;;;;;;;;4990859;28;20497;-69
2022/09/27 08:42:33;;;;;;;0.70;0.60;;;;;;;;;;4991627;28;20448;-69
2022/09/27 08:45:03;;;;;;;0.70;0.50;;;;;;;;;;4990718;28;20480;-69
2022/09/27 08:47:35;;;;;;;0.70;0.50;;;;;;;;;;4991112;28;20582;-70
2022/09/27 08:50:05;;;;;;;0.70;0.50;;;;;;;;;;4990918;28;20460;-69
2022/09/27 08:52:34;;;;;;;1.57;0.83;;;;;;;;;;4978814;28;20632;-69
2022/09/27 08:55:03;;;;;;;0.83;0.60;;;;;;;;;;4990685;28;20538;-70
2022/09/27 08:57:30;;;;;;;0.80;0.60;;;;;;;;;;4978606;28;20489;-71
2022/09/27 09:00:02;;;;;;;0.97;0.50;;;;;;;;;;4990513;28;20541;-69
2022/09/27 09:02:29;;;;;;;1.57;0.50;;;;;;;;;;4991153;28;20489;-69
2022/09/27 09:04:59;;;;;;;0.90;0.60;;;;;;;;;;4989858;28;20537;-70
2022/09/27 09:07:40;;;;;;;1.00;0.60;;;;;;;;;;4991166;28;20577;-70
2022/09/27 09:10:13;;;;;;;1.13;0.50;;;;;;;;;;4989976;28;21067;-70
2022/09/27 09:12:45;;;;;;;0.83;0.60;;;;;;;;;;4991546;28;20520;-70
2022/09/27 09:15:26;;;;;;;0.70;0.50;;;;;;;;;;4990619;28;20534;-70
2022/09/27 09:18:03;;;;;;;0.73;0.50;;;;;;;;;;4990544;28;20462;-70
2022/09/27 09:20:39;;;;;;;1.10;0.60;;;;;;;;;;4993273;28;20852;-70
2022/09/27 09:23:14;;;;;;;0.90;0.50;;;;;;;;;;4994006;28;20525;-70
2022/09/27 09:25:42;;;;;;;0.80;0.60;;;;;;;;;;4994668;28;20448;-70
2022/09/27 09:28:17;;;;;;;1.87;0.80;;;;;;;;;;4994240;28;20601;-71
2022/09/27 09:30:47;;;;;;;0.60;0.40;;;;;;;;;;4994698;28;20538;-70
2022/09/27 09:33:23;;;;;;;0.70;0.60;;;;;;;;;;4994741;28;20459;-70
2022/09/27 09:35:53;;;;;;;0.80;0.50;;;;;;;;;;4993570;28;20462;-71
2022/09/27 09:38:23;;;;;;;0.60;0.43;;;;;;;;;;4994700;28;21248;-72
2022/09/27 09:40:53;;;;;;;0.80;0.50;;;;;;;;;;4994229;28;20456;-72
2022/09/27 09:43:22;;;;;;;2.80;0.57;;;;;;;;;;4994219;28;20522;-71
2022/09/27 09:45:51;;;;;;;0.70;0.50;;;;;;;;;;4993362;28;20461;-71
2022/09/27 09:48:30;;;;;;;1.00;0.73;;;;;;;;;;4994053;28;20527;-71
2022/09/27 09:51:01;;;;;;;2.60;0.93;;;;;;;;;;4993931;28;20484;-71
2022/09/27 09:53:33;;;;;;;2.93;0.90;;;;;;;;;;4994243;28;20453;-72
2022/09/27 09:56:03;;;;;;;5.73;0.97;;;;;;;;;;4993291;28;20948;-72
2022/09/27 09:58:33;;;;;;;0.90;0.70;;;;;;;;;;4994597;28;20479;-72
2022/09/27 10:01:09;;;;;;;0.80;0.60;;;;;;;;;;4993595;28;20437;-72
2022/09/27 10:03:36;;;;;;;1.00;0.70;;;;;;;;;;4993739;28;20486;-73
2022/09/27 10:06:05;;;;;;;2.00;0.83;;;;;;;;;;4993369;28;20543;-72
2022/09/27 10:08:32;;;;;;;3.37;1.10;;;;;;;;;;4994081;28;20912;-73
2022/09/27 10:10:59;;;;;;;1.83;1.10;;;;;;;;;;4993161;28;20481;-72
2022/09/27 10:13:27;;;;;;;1.00;0.70;;;;;;;;;;4993659;28;20462;-73
2022/09/27 10:16:01;;;;;;;0.80;0.73;;;;;;;;;;4992928;28;20488;-73
2022/09/27 10:18:28;;;;;;;1.47;0.87;;;;;;;;;;4993549;28;20537;-73
2022/09/27 10:20:57;;;;;;;1.00;0.87;;;;;;;;;;4993116;28;20455;-72
2022/09/27 10:23:26;;;;;;;1.10;0.70;;;;;;;;;;4993876;28;20540;-73
2022/09/27 10:25:54;;;;;;;0.90;0.70;;;;;;;;;;4992994;28;20449;-73
2022/09/27 10:28:32;;;;;;;1.63;0.90;;;;;;;;;;4980538;28;21016;-73
2022/09/27 10:31:01;;;;;;;1.80;0.90;;;;;;;;;;4992310;28;20441;-73
2022/09/27 10:33:30;;;;;;;0.80;0.73;;;;;;;;;;4993866;28;20850;-73
2022/09/27 10:35:58;;;;;;;1.57;0.70;;;;;;;;;;4992666;28;20921;-73
2022/09/27 10:38:27;;;;;;;3.83;1.20;;;;;;;;;;4993543;28;20948;-73
2022/09/27 10:40:55;;;;;;;1.00;0.60;;;;;;;;;;4993095;28;20453;-73
2022/09/27 10:43:25;;;;;;;1.30;0.80;;;;;;;;;;4993990;28;20558;-74
2022/09/27 10:46:00;;;;;;;1.30;0.83;;;;;;;;;;4993457;28;20446;-73
2022/09/27 10:48:27;;;;;;;0.90;0.63;;;;;;;;;;4993595;28;20567;-75
2022/09/27 10:50:57;;;;;;;1.90;0.93;;;;;;;;;;4993751;28;20457;-75
2022/09/27 10:53:25;;;;;;;1.53;0.70;;;;;;;;;;4983661;28;20443;-75
2022/09/27 10:55:53;;;;;;;1.00;0.80;;;;;;;;;;4993668;28;20514;-75
2022/09/27 10:58:25;;;;;;;1.63;0.80;;;;;;;;;;4997130;28;20500;-75
2022/09/27 11:00:57;;;;;;;0.70;0.60;;;;;;;;;;4998729;28;20485;-74
2022/09/27 11:03:27;;;;;;;1.70;0.70;;;;;;;;;;5006156;28;20445;-75
2022/09/27 11:05:55;;;;;;;1.03;0.60;;;;;;;;;;5005945;28;20485;-74
2022/09/27 11:08:29;;;;;;;1.37;0.87;;;;;;;;;;5012715;28;20489;-74
2022/09/27 11:11:13;;;;;;;1.60;0.90;;;;;;;;;;5011053;28;20477;-74
2022/09/27 11:13:41;;;;;;;0.80;0.60;;;;;;;;;;5013018;28;20488;-74
2022/09/27 11:16:29;;;;;;;1.47;0.73;;;;;;;;;;5010020;28;20525;-75
2022/09/27 11:19:03;;;;;;;1.90;1.07;;;;;;;;;;4997410;28;20473;-74
2022/09/27 11:21:34;;;;;;;2.30;1.17;;;;;;;;;;5006040;28;20471;-75
2022/09/27 11:24:10;;;;;;;1.00;0.57;;;;;;;;;;5004147;28;20441;-74
2022/09/27 11:26:45;;;;;;;1.27;0.70;;;;;;;;;;5004408;28;20487;-75
2022/09/27 11:29:21;;;;;;;1.63;0.87;;;;;;;;;;5000186;28;20571;-75
2022/09/27 11:31:54;;;;;;;1.83;0.90;;;;;;;;;;4998830;28;20449;-75
2022/09/27 11:34:31;;;;;;;3.20;0.90;;;;;;;;;;4994778;28;20532;-75
2022/09/27 11:37:06;;;;;;;1.20;0.80;;;;;;;;;;4992681;28;20452;-75
2022/09/27 11:39:39;;;;;;;1.27;0.70;;;;;;;;;;4992888;28;20519;-75
2022/09/27 11:42:13;;;;;;;1.03;0.57;;;;;;;;;;4991226;28;20454;-75
2022/09/27 11:44:53;;;;;;;0.90;0.63;;;;;;;;;;4979960;28;20496;-75
2022/09/27 11:47:28;;;;;;;1.73;0.70;;;;;;;;;;4992091;28;20560;-75
2022/09/27 11:50:29;;;;;;;2.00;0.73;;;10.80;99.90;;;;;;4991438;28;20539;-75
2022/09/27 11:53:14;;;;;;;1.00;0.50;;;13.40;99.90;;;;;;4991733;28;20481;-75
2022/09/27 11:55:49;;;;;;;2.50;0.73;;;13.40;99.90;;;;;;4991597;28;20536;-75
2022/09/27 11:58:24;;;;;;;1.03;0.80;;;13.30;99.90;;;;;;4992291;28;20461;-75
2022/09/27 12:01:12;;;;;;;0.80;0.63;;;13.50;99.90;;;;;;4979831;28;20529;-73
2022/09/27 12:04:01;;;;;;;1.47;0.50;;;13.40;99.90;;;;;;4991558;28;20446;-75
2022/09/27 12:06:40;;;;;;;0.83;0.50;;;13.40;99.90;;;;;;4991918;28;20820;-75
2022/09/27 12:09:11;;;;;;;0.87;0.77;;;13.10;99.90;;;;;;4990538;28;20509;-75
2022/09/27 12:11:43;;;;;;;0.70;0.60;;;13.10;99.90;;;;;;4991605;28;20449;-75
2022/09/27 12:14:16;;;;;;;1.50;0.60;;;;;;;;;;4990717;28;20520;-75
2022/09/27 12:16:45;;;;;;;0.80;0.60;;;12.90;1.00;;;;;;4991648;28;20450;-75
2022/09/27 12:19:21;;;;;;;1.00;0.50;;;12.30;1.00;;;;;;4982277;28;21124;-75
2022/09/27 12:21:49;;;;;;;0.93;0.60;;;12.20;99.90;;;;;;4979189;28;20455;-74
2022/09/27 12:24:21;;;;;;;0.80;0.60;;;12.00;99.90;;;;;;4990525;28;20487;-75
2022/09/27 12:26:49;;;;;;;1.33;0.70;;;;;;;;;;4991954;28;20445;-74
2022/09/27 12:29:21;;;;;;;0.87;0.87;;;;;;;;;;4990991;28;20560;-73
2022/09/27 12:31:52;;;;;;;0.60;0.40;;;;;;;;;;4991683;28;20454;-73
2022/09/27 12:34:21;;;;;;;0.77;0.60;;;;;;;;;;4991466;28;20505;-74
2022/09/27 12:36:52;;;;;;;0.70;0.50;;;;;;;;;;4992019;28;20452;-74
2022/09/27 12:39:22;;;;;;;0.87;0.70;;;;;;;;;;4991764;28;20450;-73
2022/09/27 12:41:52;;;;;;;0.80;0.50;;;;;;;;;;4991354;28;20794;-73
2022/09/27 12:44:20;;;;;;;0.80;0.50;;;;;;;;;;4990986;28;20939;-73
2022/09/27 12:46:53;;;;;;;1.20;0.73;;;;;;;;;;4991862;28;20467;-73
2022/09/27 12:49:24;;;;;;;1.67;0.60;;;;;;;;;;4991412;28;20478;-73
2022/09/27 12:51:55;;;;;;;0.90;0.67;;;;;;;;;;4990872;28;20967;-73
2022/09/27 12:54:29;;;;;;;0.80;0.50;;;;;;;;;;4991866;28;20456;-73
2022/09/27 12:56:58;;;;;;;1.77;0.77;;;;;;;;;;4994883;28;20452;-73
2022/09/27 12:59:36;;;;;;;2.00;0.87;;;;;;;;;;4995129;28;20456;-74
2022/09/27 13:02:15;;;;;;;0.90;0.60;;;;;;;;;;4994754;28;20452;-73
2022/09/27 13:04:51;;;;;;;0.63;0.40;;;;;;;;;;4994978;28;20848;-73
2022/09/27 13:07:24;;;;;;;0.70;0.50;;;;;;;;;;4982866;28;20469;-73
2022/09/27 13:10:09;;;;;;;0.90;0.70;;;;;;;;;;4994284;28;20504;-72
2022/09/27 13:12:38;;;;;;;3.63;0.83;;;;;;;;;;4994963;28;20964;-73
2022/09/27 13:15:13;;;;;;;0.90;0.70;;;;;;;;;;4993998;28;20540;-72
2022/09/27 13:17:52;;;;;;;0.70;0.60;;;;;;;;;;4994770;28;20962;-73
2022/09/27 13:20:38;;;;;;;6.20;0.83;;;;;;;;;;4982839;28;20496;-73
2022/09/27 13:23:27;;;;;;;0.70;0.40;;;;;;;;;;4994307;28;20445;-72
2022/09/27 13:25:56;;;;;;;1.03;0.77;;;11.90;99.90;;;;;;4994154;28;20500;-73
2022/09/27 13:28:34;;;;;;;1.53;0.50;;;12.00;99.90;;;;;;4982341;28;20492;-73
2022/09/27 13:31:03;;;;;;;1.77;0.60;;;12.00;99.90;;;;;;4994399;28;20627;-73
2022/09/27 13:33:35;;;;;;;0.70;0.50;;;12.00;99.90;;;;;;4994596;28;20471;-73
2022/09/27 13:36:31;;;;;;;3.50;2.67;;;11.80;99.90;;;;;;4994350;28;20472;-72
2022/09/27 13:39:12;;;;;;;1.10;0.60;;;11.80;99.90;;;;;;4994024;28;20453;-73
2022/09/27 13:41:57;;;;;;;0.80;0.53;;;11.60;99.90;;;;;;4994616;28;20843;-73
2022/09/27 13:44:31;;;;;;;0.80;0.60;;;11.60;99.90;;;;;;4994155;28;20457;-73
2022/09/27 13:47:03;;;;;;;1.23;0.90;;;11.60;99.90;;;;;;4994146;28;20460;-73
2022/09/27 13:49:36;;;;;;;0.60;0.43;;;11.70;99.90;;;;;;4982094;28;20484;-73
2022/09/27 13:52:14;;;;;;;1.47;0.50;;;11.70;60.20;;;;;;4993983;28;20539;-73
2022/09/27 13:54:51;;;;;;;1.30;0.80;;;11.90;1.00;;;;;;4994140;28;20798;-74
2022/09/27 13:57:46;;;;;;;0.87;0.70;;;11.90;1.00;;;;;;4994442;28;20544;-74
2022/09/27 14:00:17;;;;;;;0.80;0.60;;;11.90;1.00;;;;;;4993699;28;20473;-74
2022/09/27 14:02:56;;;;;;;1.10;0.70;;;12.00;1.00;;;;;;4994715;28;20444;-74
2022/09/27 14:05:28;;;;;;;1.13;0.60;;;12.00;1.00;;;;;;4993373;28;20905;-74
2022/09/27 14:07:58;;;;;;;1.80;0.97;;;11.90;27.60;;;;;;4993238;28;20449;-73
2022/09/27 14:10:27;;;;;;;1.03;0.80;;;11.60;99.90;;;;;;4993761;28;20492;-74
2022/09/27 14:12:54;;;;;;;1.60;0.70;;;11.40;15.20;;;;;;4993309;28;20449;-75
2022/09/27 14:15:25;;;;;;;0.90;0.70;;;11.30;99.90;;;;;;4980874;28;20503;-75
2022/09/27 14:17:55;;;;;;;1.53;0.53;;;11.00;99.90;;;;;;4993253;28;20873;-73
2022/09/27 14:20:34;;;;;;;2.10;0.70;;;11.10;99.90;;;;;;4993906;28;20536;-75
2022/09/27 14:23:02;;;;;;;0.80;0.63;;;10.70;99.90;;;;;;4993272;28;20465;-75
2022/09/27 14:25:29;;;;;;;0.90;0.60;;;10.80;99.90;;;;;;4993685;28;20453;-75
2022/09/27 14:27:59;;;;;;;0.97;0.70;;;10.80;99.90;;;;;;4993142;28;20448;-75
2022/09/27 14:30:27;;;;;;;2.30;0.73;;;10.70;99.90;;;;;;4994589;28;20456;-75
2022/09/27 14:32:59;;;;;;;0.90;0.50;;;10.70;99.90;;;;;;4995913;28;20515;-75
2022/09/27 14:38:15;;;;;;;0.60;0.40;;;11.10;99.90;;;;;;5003055;28;20430;-75
2022/09/27 14:40:44;;;;;;;3.07;0.83;;;11.20;99.90;;;;;;5011736;28;20462;-75
2022/09/27 14:43:15;;;;;;;0.83;0.50;;;11.30;99.90;;;;;;5012728;28;20569;-74
2022/09/27 14:45:44;;;;;;;0.87;0.60;;;11.40;99.90;;;;;;5016412;28;20512;-74
2022/09/27 14:48:22;;;;;;;0.97;0.67;;;11.40;99.90;;;;;;5015655;28;20451;-75
2022/09/27 14:51:00;;;;;;;0.80;0.50;;;11.30;99.90;;;;;;5011741;28;20508;-74
2022/09/27 14:53:29;;;;;;;0.90;0.70;;;11.30;99.90;;;;;;5014680;28;20446;-74